»·PEaware :: N308MA KPSP-KSAN

N308MA :: KPSP-KSAN

FLIGHT INFORMATION

Flight Status: Arrived
Operator: Privately registered:
United States
More flights under this callsign
Pilot: Michael A. (15967)
Aircraft: CESSNA 172 SKYHAWK
(C172)
More flights by this aircraft type
Origin: KPSP Palm Springs Intl
United States
Destination: KSAN San Diego Intl-Lindbergh
United States
More flights between these airports :: More routes between these airports
Route: +TRM6 TRM V514 MZB
File this flight plan on PilotEdge
Remarks:
Altitude:
(Current/Filed)
8,000ft
Speed:
(Current/Filed)
110kts
Departed: 27-Sep-17 06:27 PM
Arrived: 27-Sep-17 07:31 PM
Distance/Time
Traveled:
74nm/1:04
Distance/Time
To Go:
Arrived

Flight Plot

Page will automatically refresh every two minutes.


Map Options




Map Legend


Flown Route
Filed Route
Departure Airport
Arrival Airport
Navaid (VOR, NDB)
Fix

Horizontal Profiles

Position Reports

Time Latitude Longitude Heading Altitude Ground
Speed
27-Sep-17 18:06 33.825358 -116.509546 90 481ft 0kts
27-Sep-17 18:07 33.825358 -116.509546 90 481ft 0kts
27-Sep-17 18:08 33.825358 -116.509546 90 481ft 0kts
27-Sep-17 18:09 33.825358 -116.509546 90 481ft 0kts
27-Sep-17 18:10 33.825358 -116.509546 90 481ft 0kts
27-Sep-17 18:11 33.825358 -116.509546 90 481ft 0kts
27-Sep-17 18:12 33.825358 -116.509546 90 481ft 0kts
27-Sep-17 18:13 33.825358 -116.509546 90 481ft 0kts
27-Sep-17 18:14 33.825358 -116.509546 90 481ft 0kts
27-Sep-17 18:15 33.825358 -116.509546 90 481ft 0kts
27-Sep-17 18:16 33.825358 -116.509546 90 481ft 0kts
27-Sep-17 18:17 33.825358 -116.509546 90 481ft 0kts
27-Sep-17 18:18 33.825358 -116.509546 90 481ft 0kts
27-Sep-17 18:19 33.825358 -116.509546 90 481ft 0kts
27-Sep-17 18:20 33.825358 -116.509546 90 481ft 0kts
27-Sep-17 18:21 33.825358 -116.509546 90 481ft 0kts
27-Sep-17 18:22 33.825358 -116.509546 90 481ft 0kts
27-Sep-17 18:23 33.825358 -116.509546 90 481ft 0kts
27-Sep-17 18:24 33.825358 -116.509546 90 481ft 0kts
27-Sep-17 18:25 33.825576 -116.509171 38 481ft 4kts
27-Sep-17 18:26 33.826099 -116.506807 71 481ft 9kts
27-Sep-17 18:27 33.823553 -116.504229 142 481ft 14kts
27-Sep-17 18:28 33.819884 -116.500981 142 481ft 19kts
27-Sep-17 18:29 33.818528 -116.498870 88 481ft 0kts
27-Sep-17 18:30 33.818785 -116.498220 22 481ft 10kts
27-Sep-17 18:31 33.824988 -116.503465 324 533ft 75kts
27-Sep-17 18:32 33.844855 -116.517340 22 1102ft 82kts
27-Sep-17 18:33 33.844382 -116.492500 97 1764ft 79kts
27-Sep-17 18:34 33.839560 -116.465994 100 2374ft 82kts
27-Sep-17 18:35 33.834608 -116.440028 100 2932ft 78kts
27-Sep-17 18:36 33.830509 -116.418548 100 3396ft 81kts
27-Sep-17 18:37 33.825334 -116.391119 100 3844ft 86kts
27-Sep-17 18:38 33.819030 -116.362614 130 4245ft 91kts
27-Sep-17 18:39 33.795684 -116.340716 137 4741ft 92kts
27-Sep-17 18:40 33.780231 -116.323590 134 5100ft 88kts
27-Sep-17 18:41 33.762661 -116.303518 135 5494ft 86kts
27-Sep-17 18:42 33.745278 -116.284241 139 5889ft 84kts
27-Sep-17 18:43 33.727934 -116.265790 138 6284ft 82kts
27-Sep-17 18:44 33.710936 -116.248019 138 6676ft 80kts
27-Sep-17 18:45 33.694498 -116.230601 138 7067ft 77kts
27-Sep-17 18:46 33.678658 -116.213841 138 7454ft 74kts
27-Sep-17 18:47 33.663554 -116.197862 139 7838ft 69kts
27-Sep-17 18:48 33.647189 -116.189303 168 8193ft 66kts
27-Sep-17 18:49 33.628562 -116.185895 165 8500ft 69kts
27-Sep-17 18:50 33.609231 -116.182331 163 8799ft 71kts
27-Sep-17 18:51 33.597387 -116.166992 126 9091ft 66kts
27-Sep-17 18:52 33.579341 -116.174948 211 9373ft 78kts
27-Sep-17 18:53 33.562598 -116.190806 215 9651ft 75kts
27-Sep-17 18:54 33.548446 -116.211173 223 9876ft 84kts
27-Sep-17 18:55 33.530041 -116.233180 218 9997ft 108kts
27-Sep-17 18:56 33.505771 -116.258454 216 9981ft 118kts
27-Sep-17 18:57 33.481225 -116.281829 215 9981ft 117kts
27-Sep-17 18:58 33.455891 -116.305083 214 9976ft 113kts
27-Sep-17 18:59 33.430946 -116.327420 214 9977ft 111kts
27-Sep-17 19:00 33.406056 -116.349445 211 9978ft 111kts
27-Sep-17 19:01 33.380801 -116.372005 211 9979ft 115kts
27-Sep-17 19:02 33.354336 -116.394944 212 9980ft 119kts
27-Sep-17 19:03 33.327293 -116.418463 212 9979ft 121kts
27-Sep-17 19:04 33.300047 -116.442183 213 9982ft 119kts
27-Sep-17 19:05 33.274014 -116.464858 213 9976ft 113kts
27-Sep-17 19:06 33.248647 -116.486876 214 10002ft 111kts
27-Sep-17 19:07 33.226161 -116.506433 214 10005ft 113kts
27-Sep-17 19:08 33.200796 -116.528486 214 10004ft 112kts
27-Sep-17 19:09 33.176874 -116.549232 216 10138ft 103kts
27-Sep-17 19:10 33.153041 -116.569971 216 10141ft 108kts
27-Sep-17 19:11 33.128136 -116.591101 214 10145ft 111kts
27-Sep-17 19:12 33.099643 -116.603793 184 10081ft 117kts
27-Sep-17 19:13 33.067092 -116.604210 180 10019ft 115kts
27-Sep-17 19:14 33.038312 -116.615839 210 10021ft 113kts
27-Sep-17 19:15 33.011447 -116.634966 211 10021ft 112kts
27-Sep-17 19:16 32.985360 -116.653537 210 10021ft 112kts
27-Sep-17 19:17 32.960643 -116.671139 210 10021ft 112kts
27-Sep-17 19:18 32.933929 -116.690158 210 10021ft 112kts
27-Sep-17 19:19 32.903934 -116.711351 210 9558ft 142kts
27-Sep-17 19:20 32.871905 -116.734902 210 8920ft 138kts
27-Sep-17 19:21 32.839289 -116.758025 210 8220ft 137kts
27-Sep-17 19:22 32.814311 -116.792530 231 7449ft 139kts
27-Sep-17 19:23 32.790119 -116.828205 231 6652ft 138kts
27-Sep-17 19:24 32.765965 -116.863829 231 5857ft 139kts
27-Sep-17 19:25 32.741644 -116.899686 231 5095ft 139kts
27-Sep-17 19:26 32.718095 -116.934401 231 4471ft 137kts
27-Sep-17 19:27 32.697885 -116.971881 238 3884ft 123kts
27-Sep-17 19:28 32.682745 -117.003153 257 4045ft 101kts
27-Sep-17 19:29 32.690434 -117.034590 293 3815ft 117kts
27-Sep-17 19:30 32.701633 -117.068671 287 3442ft 110kts
27-Sep-17 19:31 32.710553 -117.098982 290 2530ft 95kts
27-Sep-17 19:32 32.717765 -117.126473 287 1687ft 87kts
27-Sep-17 19:33 32.724063 -117.151684 284 854ft 77kts
27-Sep-17 19:34 32.729776 -117.174122 286 201ft 69kts
27-Sep-17 19:35 32.733986 -117.188060 20 17ft 4kts
27-Sep-17 19:36 32.733716 -117.185534 106 17ft 20kts
27-Sep-17 19:37 32.732166 -117.178072 63 24ft 16kts

Navigation Log

Ident Type
1. KPSP Airport
2. TRM Navaid
3. WARNE Fix
4. JLI Navaid
5. CANNO Fix
6. BARET Fix
7. RYAHH Fix
8. HAILE Fix
9. MZB Navaid
10. KSAN Airport